| time (UTC) | temp F | wind direction | speed MPH | gust MPH | rain 1hr in | rain 24hr in | rain mn in | humidity % | barometer mb |
| 20260901200039 | 72 | 194 | 0.0 | 0.0 | 0.00 | 0.00 | 0.00 | 35 | 1004.0 |
| 20260901194529 | 72 | 182 | 0.0 | 0.0 | 0.00 | 0.00 | 0.00 | 35 | 1004.2 |
| 20260901193021 | 72 | 194 | 0.0 | 0.0 | 0.00 | 0.00 | 0.00 | 35 | 1004.5 |
| 20260901191528 | 73 | 223 | 0.0 | 0.0 | 0.00 | 0.00 | 0.00 | 36 | 1004.6 |
| 20260901190015 | 71 | 182 | 0.0 | 0.0 | 0.00 | 0.00 | 0.00 | 38 | 1004.8 |
| 20260901184512 | 69 | 294 | 0.0 | 0.0 | 0.00 | 0.00 | 0.00 | 38 | 1004.9 |
| 20260901183011 | 69 | 190 | 1.0 | 0.0 | 0.00 | 0.00 | 0.00 | 38 | 1005.3 |
| 20260901181505 | 68 | 202 | 0.0 | 0.0 | 0.00 | 0.00 | 0.00 | 42 | 1005.5 |
| 20260901180005 | 66 | 200 | 0.0 | 0.0 | 0.00 | 0.00 | 0.00 | 45 | 1005.5 |
| 20260901174605 | 66 | 211 | 0.0 | 0.0 | 0.00 | 0.00 | 0.00 | 48 | 1005.6 |
| 20260901173058 | 64 | 211 | 0.0 | 0.0 | 0.00 | 0.00 | 0.00 | 52 | 1005.7 |
| 20260901171552 | 63 | 214 | 0.0 | 0.0 | 0.00 | 0.00 | 0.00 | 55 | 1005.7 |
| 20260901170138 | 60 | 282 | 0.0 | 0.0 | 0.00 | 0.00 | 0.00 | 60 | 1005.7 |
| 20260901164543 | 59 | 283 | 0.0 | 0.0 | 0.00 | 0.00 | 0.00 | 63 | 1005.7 |
| 20260901163038 | 56 | 284 | 0.0 | 0.0 | 0.00 | 0.00 | 0.00 | 67 | 1006.0 |
| 20260901161534 | 54 | 286 | 0.0 | 0.0 | 0.00 | 0.00 | 0.00 | 71 | 1006.2 |
| 20260901160035 | 51 | 355 | 0.0 | 0.0 | 0.00 | 0.00 | 0.00 | 76 | 1006.2 |
| 20260901154528 | 48 | 355 | 0.0 | 0.0 | 0.00 | 0.00 | 0.00 | 81 | 1006.3 |
| 20260901153027 | 45 | 355 | 0.0 | 0.0 | 0.00 | 0.00 | 0.00 | 85 | 1006.4 |
| 20260901151526 | 42 | 355 | 0.0 | 0.0 | 0.00 | 0.00 | 0.00 | 86 | 1006.5 |
| 20260901150025 | 39 | 355 | 0.0 | 0.0 | 0.00 | 0.00 | 0.00 | 85 | 1006.6 |
| 20260901144523 | 38 | 355 | 0.0 | 0.0 | 0.00 | 0.00 | 0.00 | 83 | 1006.8 |
| 20260901143022 | 38 | 355 | 0.0 | 0.0 | 0.00 | 0.00 | 0.00 | 81 | 1006.8 |
| 20260901141525 | 38 | 355 | 0.0 | 0.0 | 0.00 | 0.00 | 0.00 | 80 | 1006.7 |
| 20260901140027 | 38 | 355 | 0.0 | 0.0 | 0.00 | 0.00 | 0.00 | 82 | 1006.5 |
| 20260901134520 | 37 | 355 | 0.0 | 0.0 | 0.00 | 0.00 | 0.00 | 80 | 1006.4 |
| 20260901133018 | 37 | 355 | 0.0 | 0.0 | 0.00 | 0.00 | 0.00 | 79 | 1006.1 |
| 20260901131524 | 38 | 355 | 0.0 | 0.0 | 0.00 | 0.00 | 0.00 | 79 | 1006.1 |
| 20260901130013 | 38 | 355 | 0.0 | 0.0 | 0.00 | 0.00 | 0.00 | 78 | 1006.1 |
| 20260901124512 | 39 | 355 | 0.0 | 0.0 | 0.00 | 0.00 | 0.00 | 77 | 1006.0 |
| 20260901123008 | 40 | 355 | 0.0 | 0.0 | 0.00 | 0.00 | 0.00 | 77 | 1006.1 |
| 20260901121506 | 40 | 355 | 0.0 | 0.0 | 0.00 | 0.00 | 0.00 | 76 | 1006.1 |
| 20260901120004 | 41 | 355 | 0.0 | 0.0 | 0.00 | 0.00 | 0.00 | 76 | 1006.3 |
| 20260901114503 | 41 | 355 | 0.0 | 0.0 | 0.00 | 0.00 | 0.00 | 76 | 1006.4 |
| 20260901113107 | 42 | 355 | 0.0 | 0.0 | 0.00 | 0.00 | 0.00 | 78 | 1006.3 |
| 20260901111606 | 42 | 355 | 0.0 | 0.0 | 0.00 | 0.00 | 0.00 | 74 | 1006.4 |
| 20260901110056 | 43 | 355 | 0.0 | 0.0 | 0.00 | 0.00 | 0.00 | 74 | 1006.3 |
| 20260901104553 | 43 | 355 | 0.0 | 0.0 | 0.00 | 0.00 | 0.00 | 72 | 1006.3 |
| 20260901103049 | 44 | 355 | 0.0 | 0.0 | 0.00 | 0.00 | 0.00 | 70 | 1006.3 |
| 20260901101553 | 45 | 355 | 0.0 | 0.0 | 0.00 | 0.00 | 0.00 | 70 | 1006.5 |
| 20260901100049 | 46 | 355 | 0.0 | 0.0 | 0.00 | 0.00 | 0.00 | 71 | 1006.6 |
| 20260901094541 | 47 | 355 | 0.0 | 0.0 | 0.00 | 0.00 | 0.00 | 67 | 1006.7 |
| 20260901093038 | 47 | 355 | 0.0 | 0.0 | 0.00 | 0.00 | 0.00 | 65 | 1006.6 |
| 20260901091536 | 48 | 355 | 0.0 | 0.0 | 0.00 | 0.00 | 0.00 | 64 | 1006.6 |
| 20260901090041 | 49 | 355 | 0.0 | 0.0 | 0.00 | 0.00 | 0.00 | 64 | 1006.8 |
| 20260901084544 | 49 | 355 | 0.0 | 0.0 | 0.00 | 0.00 | 0.00 | 68 | 1006.7 |
| 20260901083040 | 49 | 355 | 0.0 | 0.0 | 0.00 | 0.00 | 0.00 | 63 | 1006.8 |
| 20260901081531 | 49 | 355 | 0.0 | 0.0 | 0.00 | 0.00 | 0.00 | 67 | 1006.7 |
| 20260901080029 | 49 | 355 | 0.0 | 0.0 | 0.00 | 0.00 | 0.00 | 63 | 1006.6 |
| 20260901074531 | 49 | 355 | 0.0 | 0.0 | 0.00 | 0.00 | 0.00 | 63 | 1006.7 |
| 20260901073034 | 50 | 355 | 0.0 | 0.0 | 0.00 | 0.00 | 0.00 | 62 | 1006.7 |
| 20260901071523 | 50 | 355 | 0.0 | 0.0 | 0.00 | 0.00 | 0.00 | 61 | 1006.6 |
| 20260901070023 | 51 | 355 | 0.0 | 0.0 | 0.00 | 0.00 | 0.00 | 60 | 1006.6 |
| 20260901064533 | 51 | 355 | 0.0 | 0.0 | 0.00 | 0.00 | 0.00 | 59 | 1006.5 |
| 20260901063018 | 52 | 355 | 0.0 | 0.0 | 0.00 | 0.00 | 0.00 | 57 | 1006.5 |
| 20260901061522 | 53 | 355 | 0.0 | 0.0 | 0.00 | 0.00 | 0.00 | 56 | 1006.6 |
| 20260901060017 | 54 | 355 | 0.0 | 0.0 | 0.00 | 0.00 | 0.00 | 55 | 1006.6 |
| 20260901054518 | 54 | 355 | 0.0 | 0.0 | 0.00 | 0.00 | 0.00 | 54 | 1006.9 |
| 20260901053017 | 55 | 355 | 0.0 | 0.0 | 0.00 | 0.00 | 0.00 | 54 | 1006.9 |
| 20260901051516 | 55 | 355 | 0.0 | 0.0 | 0.00 | 0.00 | 0.00 | 52 | 1007.0 |
| 20260901050016 | 57 | 355 | 0.0 | 0.0 | 0.00 | 0.00 | 0.00 | 51 | 1006.7 |
| 20260901044515 | 58 | 355 | 0.0 | 0.0 | 0.00 | 0.00 | 0.00 | 49 | 1006.7 |
| 20260901043015 | 59 | 355 | 0.0 | 0.0 | 0.00 | 0.00 | 0.00 | 48 | 1006.6 |
| 20260901041514 | 61 | 355 | 0.0 | 0.0 | 0.00 | 0.00 | 0.00 | 47 | 1006.3 |
| 20260901040014 | 62 | 355 | 0.0 | 0.0 | 0.00 | 0.00 | 0.00 | 45 | 1006.2 |
| 20260901034520 | 63 | 355 | 0.0 | 0.0 | 0.00 | 0.00 | 0.00 | 43 | 1006.0 |
| 20260901033013 | 65 | 355 | 0.0 | 0.0 | 0.00 | 0.00 | 0.00 | 43 | 1005.8 |
| 20260901031526 | 66 | 355 | 0.0 | 0.0 | 0.00 | 0.00 | 0.00 | 41 | 1005.7 |
| 20260901030020 | 68 | 355 | 0.0 | 0.0 | 0.00 | 0.00 | 0.00 | 39 | 1005.6 |
| 20260901024521 | 70 | 355 | 0.0 | 0.0 | 0.00 | 0.00 | 0.00 | 37 | 1005.6 |
| 20260901023012 | 71 | 355 | 0.0 | 0.0 | 0.00 | 0.00 | 0.00 | 35 | 1005.5 |
| 20260901021511 | 73 | 355 | 0.0 | 0.0 | 0.00 | 0.00 | 0.00 | 34 | 1005.4 |
| 20260901020010 | 74 | 15 | 0.0 | 0.0 | 0.00 | 0.00 | 0.00 | 32 | 1005.3 |
| 20260901014509 | 76 | 329 | 0.0 | 0.0 | 0.00 | 0.00 | 0.00 | 31 | 1005.2 |
| 20260901013009 | 77 | 323 | 0.0 | 0.0 | 0.00 | 0.00 | 0.00 | 29 | 1005.1 |
| 20260901011509 | 78 | 282 | 0.0 | 0.0 | 0.00 | 0.00 | 0.00 | 28 | 1005.2 |
| 20260901010014 | 80 | 256 | 0.0 | 0.0 | 0.00 | 0.00 | 0.00 | 24 | 1005.1 |
| 20260901004507 | 82 | 229 | 0.0 | 0.0 | 0.00 | 0.00 | 0.00 | 14 | 1004.5 |
| 20260901003005 | 83 | 152 | 0.0 | 0.0 | 0.00 | 0.00 | 0.00 | 13 | 1004.6 |
| 20260901001512 | 84 | 198 | 0.0 | 0.0 | 0.00 | 0.00 | 0.00 | 13 | 1004.7 |
| 20260901000007 | 84 | 207 | 0.0 | 0.0 | 0.00 | 0.00 | 0.00 | 14 | 1004.7 |
| 20260831234606 | 85 | 194 | 1.0 | 0.0 | 0.00 | 0.00 | 0.00 | 13 | 1005.0 |
| 20260831233059 | 85 | 190 | 0.0 | 0.0 | 0.00 | 0.00 | 0.00 | 13 | 1005.1 |
| 20260831231602 | 85 | 180 | 0.0 | 0.0 | 0.00 | 0.00 | 0.00 | 13 | 1005.0 |
| 20260831230134 | 86 | 198 | 0.0 | 0.0 | 0.00 | 0.00 | 0.00 | 12 | 1005.2 |
| 20260831224553 | 86 | 203 | 1.0 | 0.0 | 0.00 | 0.00 | 0.00 | 12 | 1005.5 |
| 20260831223051 | 87 | 200 | 1.0 | 0.0 | 0.00 | 0.00 | 0.00 | 13 | 1005.7 |
| 20260831221605 | 86 | 122 | 0.0 | 0.0 | 0.00 | 0.00 | 0.00 | 14 | 1005.8 |
| 20260831220048 | 87 | 121 | 0.0 | 0.0 | 0.00 | 0.00 | 0.00 | 13 | 1006.1 |
| 20260831214548 | 86 | 206 | 0.0 | 0.0 | 0.00 | 0.00 | 0.00 | 13 | 1006.2 |
| 20260831213048 | 86 | 191 | 1.0 | 0.0 | 0.00 | 0.00 | 0.00 | 13 | 1006.5 |
| 20260831211541 | 84 | 178 | 1.0 | 0.0 | 0.00 | 0.00 | 0.00 | 15 | 1006.7 |
| 20260831210037 | 84 | 134 | 0.0 | 0.0 | 0.00 | 0.00 | 0.00 | 16 | 1006.9 |
| 20260831204535 | 84 | 203 | 0.0 | 0.0 | 0.00 | 0.00 | 0.00 | 17 | 1007.1 |
| 20260831203035 | 83 | 229 | 1.0 | 0.0 | 0.00 | 0.00 | 0.00 | 16 | 1007.4 |
| 20260831201531 | 83 | 169 | 0.0 | 0.0 | 0.00 | 0.00 | 0.00 | 17 | 1007.7 |